Terminal Aerodrome Forecast
Issued by NWS Cleveland, OH

Home | Current Version | Previous Version | Text Only | Print | Product List | Glossary Off
Versions: 1 2 3 4 5 6 7 8 9 10 11 12 13 14 15 16 17 18 19 20 21 22 23 24 25 26 27 28

000
FTUS41 KCLE 151500 AAB
TAFERI
TAF AMD
KERI 151510Z 1515/1612 17005KT 1 1/2SM BR BKN003 OVC008
      TEMPO 1515/1517 4SM BR BKN008
     FM151700 15006KT 5SM BR BKN008
     FM151900 08006KT P6SM BKN014
     FM152200 12006KT P6SM BKN022
     FM160900 15008KT 5SM -RA BR OVC040=

USA.gov is the U.S. government's official web portal to all federal, state and local government web resources and services.